Time;durP1;ratioP1;P1;durP2;ratioP2;P2;SDS_P1;SDS_P2;PMS_P1;PMS_P2;Temp;Humidity;BMP_temperature;BMP_pressure;BME280_temperature;BME280_humidity;BME280_pressure;Samples;Min_cycle;Max_cycle;Signal;HPM_P1;HPM_P2
2024/03/10 00:01:23;;;;;;;26.40;13.50;;;;;;;12.70;43.48;99916.09;4930554;28;96953;-92
2024/03/10 00:03:49;;;;;;;26.02;14.23;;;;;;;12.70;43.34;99912.63;4930553;28;99300;-92
2024/03/10 00:06:17;;;;;;;28.15;13.85;;;;;;;12.69;43.49;99922.22;4946072;28;100394;-92
2024/03/10 00:08:44;;;;;;;25.92;15.10;;;;;;;12.69;43.63;99923.94;4932400;28;96742;-93
2024/03/10 00:11:09;;;;;;;26.77;12.50;;;;;;;12.69;43.59;99926.56;4949136;28;96830;-93
2024/03/10 00:13:35;;;;;;;24.90;12.20;;;;;;;12.69;43.66;99914.38;4934971;28;100452;-92
2024/03/10 00:16:01;;;;;;;25.55;12.90;;;;;;;12.69;43.60;99918.72;4939451;28;98558;-92
2024/03/10 00:18:27;;;;;;;24.70;13.07;;;;;;;12.70;43.66;99917.84;4932095;28;96786;-92
2024/03/10 00:20:54;;;;;;;24.45;13.75;;;;;;;12.71;43.71;99916.97;4933636;28;96987;-92
2024/03/10 00:23:21;;;;;;;27.92;14.85;;;;;;;12.70;43.83;99921.31;4945932;28;99496;-92
2024/03/10 00:25:46;;;;;;;24.55;12.27;;;;;;;12.71;43.46;99910.00;4945523;28;99086;-92
2024/03/10 00:28:12;;;;;;;27.13;14.15;;;;;;;12.70;43.71;99896.91;4970784;28;96640;-92
2024/03/10 00:30:38;;;;;;;28.30;13.18;;;;;;;12.69;43.61;99889.94;4952217;28;96615;-93
2024/03/10 00:33:04;;;;;;;25.67;12.95;;;;;;;12.66;43.53;99883.00;4950428;28;99482;-93
2024/03/10 00:35:30;;;;;;;27.70;13.80;;;;;;;12.65;43.72;99890.88;4945578;28;98975;-92
2024/03/10 00:37:56;;;;;;;25.88;13.52;;;;;;;12.63;43.87;99905.72;4945972;28;96809;-92
2024/03/10 00:40:23;;;;;;;27.08;14.82;;;;;;;12.62;43.78;99903.97;4944664;28;96740;-93
2024/03/10 00:42:49;;;;;;;25.92;14.90;;;;;;;12.61;43.77;99897.03;4930041;28;100190;-93
2024/03/10 00:45:15;;;;;;;27.52;15.02;;;;;;;12.59;43.97;99891.81;4942715;28;98654;-92
2024/03/10 00:47:41;;;;;;;28.02;14.38;;;;;;;12.57;43.92;99898.81;4936180;28;96724;-93
2024/03/10 00:50:09;;;;;;;31.08;13.63;;;;;;;12.54;43.77;99896.22;4943576;28;96781;-93
2024/03/10 00:52:36;;;;;;;28.63;14.80;;;;;;;12.54;43.95;99898.84;4941995;28;99401;-92
2024/03/10 00:55:02;;;;;;;29.20;15.43;;;;;;;12.50;43.91;99887.53;4927385;28;99133;-92
2024/03/10 00:57:27;;;;;;;27.60;15.27;;;;;;;12.49;43.91;99896.25;4943436;28;96759;-92
2024/03/10 00:59:53;;;;;;;26.02;14.70;;;;;;;12.46;44.04;99900.66;4942427;28;96820;-93
2024/03/10 01:02:19;;;;;;;27.38;14.82;;;;;;;12.46;43.92;99904.16;4951702;28;99895;-92
2024/03/10 01:04:45;;;;;;;26.48;15.10;;;;;;;12.47;44.09;99910.25;4922430;28;100073;-92
2024/03/10 01:07:10;;;;;;;27.52;14.68;;;;;;;12.47;43.97;99918.09;4930570;28;96852;-92
2024/03/10 01:09:36;;;;;;;29.45;15.50;;;;;;;12.47;44.00;99912.84;4940039;28;97196;-91
2024/03/10 01:12:02;;;;;;;28.30;15.93;;;;;;;12.47;44.16;99913.72;4923821;28;99229;-92
2024/03/10 01:14:28;;;;;;;26.70;13.07;;;;;;;12.47;44.37;99908.47;4943726;28;100063;-93
2024/03/10 01:16:53;;;;;;;24.83;13.00;;;;;;;12.49;44.00;99911.09;4922777;28;97367;-92
2024/03/10 01:19:22;;;;;;;26.23;13.07;;;;;;;12.47;44.16;99908.47;4940900;28;97655;-91
2024/03/10 01:21:47;;;;;;;29.88;15.70;;;;;;;12.46;44.23;99909.38;4941174;28;100383;-92
2024/03/10 01:24:13;;;;;;;27.38;13.88;;;;;;;12.45;44.15;99909.41;4931884;28;98729;-92
2024/03/10 01:26:39;;;;;;;27.73;15.20;;;;;;;12.43;44.22;99909.41;4933970;28;96809;-91
2024/03/10 01:29:04;;;;;;;29.55;14.18;;;;;;;12.43;44.40;99908.56;4924536;28;96843;-92
2024/03/10 01:31:30;;;;;;;25.35;12.63;;;;;;;12.40;44.07;99906.81;4941496;28;100244;-92
2024/03/10 01:33:56;;;;;;;28.02;14.52;;;;;;;12.37;44.29;99901.59;4942677;28;100280;-92
2024/03/10 01:36:21;;;;;;;29.40;15.55;;;;;;;12.34;44.31;99901.66;4933149;28;96818;-92
2024/03/10 01:38:50;;;;;;;28.38;13.43;;;;;;;12.30;44.32;99899.94;4944304;28;97723;-92
2024/03/10 01:41:15;;;;;;;27.75;14.98;;;;;;;12.28;44.28;99902.59;4923662;28;100494;-92
2024/03/10 01:43:42;;;;;;;31.08;14.50;;;;;;;12.25;44.42;99886.91;4944498;28;100350;-92
2024/03/10 01:46:08;;;;;;;30.05;13.15;;;;;;;12.20;44.37;99883.47;4926915;28;96823;-92
2024/03/10 01:48:37;;;;;;;29.20;15.32;;;;;;;12.17;44.57;99873.03;4942376;28;97186;-92
2024/03/10 01:51:04;;;;;;;27.20;14.52;;;;;;;12.16;44.57;99868.72;4941395;28;96869;-92
2024/03/10 01:53:31;;;;;;;27.25;13.20;;;;;;;12.14;44.40;99865.25;4925810;28;98225;-92
2024/03/10 01:56:03;;;;;;;29.23;14.60;;;;;;;12.10;44.56;99856.56;4926691;28;96987;-93
2024/03/10 01:58:31;;;;;;;28.10;15.88;;;;;;;12.09;44.63;99859.19;4944566;28;96759;-92
2024/03/10 02:01:04;;;;;;;29.58;15.55;;;;;;;12.07;44.77;99843.53;4925372;28;98238;-93
2024/03/10 02:03:30;;;;;;;31.05;15.60;;;;;;;12.07;44.85;99842.66;4926931;28;98873;-92
2024/03/10 02:05:56;;;;;;;27.77;15.27;;;;;;;12.04;44.92;99830.47;4928105;28;96796;-92
2024/03/10 02:08:21;;;;;;;31.42;16.65;;;;;;;12.05;45.11;99831.34;4933227;28;96839;-92
2024/03/10 02:10:52;;;;;;;29.83;15.82;;;;;;;12.06;45.01;99838.31;4945995;28;97759;-93
2024/03/10 02:13:18;;;;;;;30.10;14.57;;;;;;;12.06;44.87;99833.09;4932025;28;100594;-92
2024/03/10 02:15:58;;;;;;;28.95;14.85;;;;;;;12.03;45.13;99835.72;4926948;28;96842;-92
2024/03/10 02:18:23;;;;;;;33.65;17.10;;;;;;;12.06;45.17;99847.00;4941711;28;97096;-91
2024/03/10 02:20:50;;;;;;;28.50;15.32;;;;;;;12.07;45.09;99846.16;4940975;28;97503;-92
2024/03/10 02:23:20;;;;;;;31.52;14.73;;;;;;;12.08;45.07;99844.38;4939521;28;100345;-92
2024/03/10 02:25:48;;;;;;;28.25;15.52;;;;;;;12.07;45.10;99848.75;4925470;28;96950;-92
2024/03/10 02:28:34;;;;;;;30.98;16.42;;;;;;;12.10;44.98;99853.97;4921958;28;96858;-92
2024/03/10 02:47:11;;;;;;;30.60;15.38;;;;;;;12.09;45.23;99847.00;4921300;28;100935;-93
2024/03/10 02:47:32;;;;;;;30.48;14.70;;;;;;;12.05;45.45;99833.94;4940400;28;96810;-92
2024/03/10 02:50:05;;;;;;;30.33;16.77;;;;;;;12.03;45.41;99822.66;4925164;28;96878;-92
2024/03/10 02:52:34;;;;;;;31.05;15.65;;;;;;;12.03;45.32;99822.66;4940080;28;99581;-91
2024/03/10 02:55:16;;;;;;;29.25;14.75;;;;;;;11.99;45.53;99816.59;4940740;28;100611;-92
2024/03/10 02:57:41;;;;;;;32.78;15.95;;;;;;;12.03;45.56;99812.19;4944371;28;96861;-93
2024/03/10 03:00:12;;;;;;;30.50;17.23;;;;;;;12.02;45.63;99823.56;4928532;28;96867;-92
2024/03/10 03:02:38;;;;;;;31.88;14.90;;;;;;;12.02;45.56;99813.94;4942219;28;98712;-92
2024/03/10 03:05:04;;;;;;;32.08;16.60;;;;;;;12.01;45.61;99820.03;4937157;28;97999;-92
2024/03/10 03:07:29;;;;;;;28.30;14.02;;;;;;;12.03;45.50;99820.03;4928138;28;96750;-93
2024/03/10 03:09:55;;;;;;;31.20;16.58;;;;;;;12.00;45.81;99803.50;4932424;28;97059;-93
2024/03/10 03:12:21;;;;;;;32.13;15.75;;;;;;;12.00;45.64;99806.13;4966409;28;98865;-92
2024/03/10 03:14:46;;;;;;;33.70;18.77;;;;;;;11.99;45.66;99795.69;4927760;28;99547;-93
2024/03/10 03:17:13;;;;;;;31.85;16.85;;;;;;;11.98;45.71;99800.06;4943698;28;96861;-92
2024/03/10 03:19:42;;;;;;;31.67;15.45;;;;;;;11.96;45.87;99804.44;4929992;28;96700;-92
2024/03/10 03:22:08;;;;;;;35.03;16.25;;;;;;;11.95;45.74;99801.81;4952344;28;99297;-92
2024/03/10 03:24:34;;;;;;;30.30;14.55;;;;;;;11.93;45.65;99794.00;4942938;28;99601;-94
2024/03/10 03:27:00;;;;;;;31.85;15.23;;;;;;;11.93;45.79;99786.16;4967325;28;96867;-91
2024/03/10 03:29:26;;;;;;;32.75;16.75;;;;;;;11.93;45.78;99785.31;4926669;28;96896;-93
2024/03/10 03:31:52;;;;;;;31.10;16.20;;;;;;;11.90;45.90;99798.34;4926461;28;98577;-91
2024/03/10 03:34:17;;;;;;;33.13;17.00;;;;;;;11.86;45.82;99786.22;4927627;28;99163;-93
2024/03/10 03:36:44;;;;;;;33.03;17.67;;;;;;;11.85;45.98;99785.31;4924668;28;96830;-92
2024/03/10 03:39:09;;;;;;;32.13;16.02;;;;;;;11.82;46.00;99778.41;4927541;28;96864;-92
2024/03/10 03:41:35;;;;;;;35.53;16.55;;;;;;;11.82;46.03;99785.38;4943892;28;98736;-92
2024/03/10 03:44:04;;;;;;;34.88;16.55;;;;;;;11.79;45.90;99786.25;4944277;28;99733;-92
2024/03/10 03:46:30;;;;;;;36.45;18.55;;;;;;;11.77;46.18;99781.94;4937447;28;96747;-91
2024/03/10 03:48:56;;;;;;;35.80;18.33;;;;;;;11.74;46.00;99780.19;4933531;28;96797;-92
2024/03/10 03:51:21;;;;;;;34.60;17.80;;;;;;;11.74;46.27;99772.38;4930227;28;100696;-92
2024/03/10 03:53:47;;;;;;;35.60;16.50;;;;;;;11.70;46.19;99760.22;4937021;28;100558;-93
2024/03/10 03:56:13;;;;;;;39.40;18.77;;;;;;;11.66;46.31;99755.03;4925472;28;96593;-92
2024/03/10 03:58:40;;;;;;;33.13;17.65;;;;;;;11.65;46.24;99748.94;4943691;28;96986;-92
2024/03/10 04:01:07;;;;;;;33.92;16.27;;;;;;;11.62;46.45;99755.06;4937494;28;100654;-92
2024/03/10 04:03:33;;;;;;;35.13;17.42;;;;;;;11.59;46.61;99747.25;4921998;28;100253;-91
2024/03/10 04:05:58;;;;;;;36.22;19.35;;;;;;;11.56;46.40;99744.66;4925119;28;96638;-92
2024/03/10 04:08:24;;;;;;;36.17;20.08;;;;;;;11.54;46.55;99732.53;4925888;28;96868;-93
2024/03/10 04:10:50;;;;;;;32.42;15.98;;;;;;;11.49;46.63;99735.16;4924851;28;98762;-92
2024/03/10 04:13:16;;;;;;;29.52;16.02;;;;;;;11.48;46.74;99740.38;4928003;28;99134;-92
2024/03/10 04:15:42;;;;;;;36.60;19.10;;;;;;;11.46;46.66;99736.94;4934240;28;96831;-92
2024/03/10 04:18:08;;;;;;;33.47;17.08;;;;;;;11.45;46.52;99735.22;4933402;28;96713;-92
2024/03/10 04:20:35;;;;;;;35.30;16.95;;;;;;;11.43;46.62;99735.22;4926458;28;98939;-92
2024/03/10 04:23:05;;;;;;;32.20;16.33;;;;;;;11.41;46.72;99723.94;4920543;28;99014;-92
2024/03/10 04:25:32;;;;;;;32.15;15.32;;;;;;;11.38;46.72;99721.34;4937567;28;96918;-93
2024/03/10 04:27:58;;;;;;;36.08;18.30;;;;;;;11.37;46.74;99722.22;4947443;28;96838;-91
2024/03/10 04:30:23;;;;;;;34.75;16.13;;;;;;;11.34;46.91;99733.56;4948076;28;99314;-92
2024/03/10 04:32:49;;;;;;;33.72;16.20;;;;;;;11.33;46.87;99715.28;4947308;28;98466;-92
2024/03/10 04:35:19;;;;;;;32.85;17.70;;;;;;;11.30;47.00;99724.03;4936032;28;96694;-93
2024/03/10 04:37:45;;;;;;;37.00;18.30;;;;;;;11.29;46.73;99717.06;4951871;28;96599;-93
2024/03/10 04:40:12;;;;;;;35.42;17.17;;;;;;;11.27;46.89;99724.03;4936812;28;99142;-91
2024/03/10 04:42:38;;;;;;;31.15;15.77;;;;;;;11.26;46.86;99731.88;4951705;28;100274;-92
2024/03/10 04:45:06;;;;;;;34.42;17.45;;;;;;;11.24;47.05;99726.66;4951841;28;96703;-93
2024/03/10 04:47:33;;;;;;;33.00;15.40;;;;;;;11.24;47.04;99730.13;4943135;28;96652;-93
2024/03/10 04:49:59;;;;;;;33.67;17.58;;;;;;;11.23;46.90;99738.00;4943651;28;99198;-92
2024/03/10 04:52:25;;;;;;;36.42;18.25;;;;;;;11.21;46.91;99734.50;4962765;28;97729;-94
2024/03/10 04:54:51;;;;;;;32.50;16.95;;;;;;;11.18;47.06;99727.59;4931812;28;96918;-93
2024/03/10 04:57:18;;;;;;;33.92;18.50;;;;;;;11.16;47.03;99721.53;4940282;28;96918;-92
2024/03/10 04:59:46;;;;;;;32.65;16.17;;;;;;;11.15;47.20;99730.22;4943418;28;98787;-92
2024/03/10 05:02:12;;;;;;;35.25;17.88;;;;;;;11.14;47.10;99738.06;4944080;28;100468;-91
2024/03/10 05:04:38;;;;;;;33.42;16.55;;;;;;;11.12;46.89;99750.25;4932422;28;96736;-92
2024/03/10 05:07:04;;;;;;;33.55;17.02;;;;;;;11.11;47.19;99738.09;4927661;28;96950;-92
2024/03/10 05:09:30;;;;;;;37.00;18.05;;;;;;;11.09;47.21;99738.09;4945302;28;100678;-92
2024/03/10 05:11:56;;;;;;;33.88;16.55;;;;;;;11.07;47.23;99734.66;4931745;28;99535;-93
2024/03/10 05:14:22;;;;;;;32.10;15.63;;;;;;;11.04;47.26;99735.50;4934518;28;96718;-94
2024/03/10 05:16:47;;;;;;;31.58;15.98;;;;;;;11.02;47.03;99737.28;4947857;28;96928;-93
2024/03/10 05:19:13;;;;;;;34.53;17.15;;;;;;;11.01;47.27;99739.88;4945485;28;100530;-93
2024/03/10 05:21:38;;;;;;;34.45;18.40;;;;;;;10.99;47.24;99739.03;4941365;28;98508;-93
2024/03/10 05:24:52;;;;;;;37.30;17.25;;;;;;;10.95;47.28;99740.81;4927981;28;96598;-95
2024/03/10 05:27:21;;;;;;;32.42;16.00;;;;;;;10.93;47.24;99737.34;4941339;28;96885;-92
2024/03/10 05:29:47;;;;;;;35.38;18.02;;;;;;;10.91;47.19;99733.00;4936477;28;96947;-92
2024/03/10 05:32:12;;;;;;;35.30;18.63;;;;;;;10.88;47.41;99727.81;4932046;28;99331;-92
2024/03/10 05:34:39;;;;;;;34.47;17.20;;;;;;;10.85;47.41;99718.25;4928414;28;96773;-92
2024/03/10 05:37:05;;;;;;;39.38;18.80;;;;;;;10.83;47.41;99720.88;4924452;28;97326;-92
2024/03/10 05:39:32;;;;;;;33.22;16.15;;;;;;;10.82;47.54;99713.94;4948099;28;99411;-91
2024/03/10 05:41:59;;;;;;;35.63;18.48;;;;;;;10.79;47.39;99719.16;4933596;28;97653;-93
2024/03/10 05:44:25;;;;;;;30.77;15.07;;;;;;;10.78;47.37;99720.03;4936973;28;96779;-92
2024/03/10 05:46:50;;;;;;;36.53;17.05;;;;;;;10.76;47.62;99726.16;4937092;28;96814;-93
2024/03/10 05:49:16;;;;;;;31.67;15.05;;;;;;;10.75;47.78;99727.91;4950965;28;98064;-92
2024/03/10 05:51:42;;;;;;;31.00;14.90;;;;;;;10.73;47.73;99720.94;4956711;28;100271;-92
2024/03/10 05:54:08;;;;;;;36.40;17.48;;;;;;;10.70;47.72;99714.00;4931281;28;96728;-92
2024/03/10 05:56:33;;;;;;;33.92;17.88;;;;;;;10.71;47.83;99720.09;4933421;28;97052;-93
2024/03/10 05:59:02;;;;;;;35.10;17.33;;;;;;;10.71;47.90;99726.16;4923444;28;100825;-92
2024/03/10 06:01:28;;;;;;;35.33;17.75;;;;;;;10.71;47.76;99725.31;4941902;28;98922;-92
2024/03/10 06:03:54;;;;;;;34.03;16.40;;;;;;;10.71;47.76;99727.91;4920539;28;96761;-94
2024/03/10 06:06:21;;;;;;;36.58;17.48;;;;;;;10.70;47.93;99728.81;4929103;28;96660;-92
2024/03/10 06:08:47;;;;;;;35.85;17.70;;;;;;;10.70;47.80;99727.06;4942781;28;100207;-93
2024/03/10 06:11:13;;;;;;;34.10;17.50;;;;;;;10.69;48.06;99714.88;4925697;28;100964;-92
2024/03/10 06:13:40;;;;;;;35.53;15.20;;;;;;;10.69;47.82;99712.25;4923373;28;96928;-93
2024/03/10 06:16:13;;;;;;;34.35;17.17;;;;;;;10.70;48.00;99716.63;4926719;28;97073;-93
2024/03/10 06:26:57;;;;;;;34.05;15.25;;;;;;;10.72;47.99;99721.84;4945771;28;96834;-93
2024/03/10 06:29:24;;;;;;;32.53;15.73;;;;;;;10.73;48.03;99724.44;4940385;28;99925;-93
2024/03/10 06:31:50;;;;;;;34.47;17.95;;;;;;;10.74;48.08;99725.28;4943243;28;99629;-93
2024/03/10 06:34:17;;;;;;;36.35;17.65;;;;;;;10.73;48.04;99727.03;4922975;28;96768;-92
2024/03/10 06:36:43;;;;;;;35.70;16.38;;;;;;;10.74;47.97;99731.38;4929447;28;96955;-92
2024/03/10 06:39:10;;;;;;;35.28;17.30;;;;;;;10.75;48.17;99722.69;4939872;28;99039;-93
2024/03/10 06:41:35;;;;;;;33.58;17.83;;;;;;;10.77;48.11;99725.28;4940405;28;100319;-91
2024/03/10 06:44:02;;;;;;;33.55;16.70;;;;;;;10.78;47.93;99717.41;4940274;28;96852;-92
2024/03/10 06:46:29;;;;;;;32.20;15.52;;;;;;;10.79;48.09;99724.38;4933426;28;96677;-93
2024/03/10 06:48:55;;;;;;;34.05;15.68;;;;;;;10.80;47.78;99720.03;4928078;28;99236;-94
2024/03/10 06:51:21;;;;;;;36.92;16.00;;;;;;;10.80;48.09;99731.34;4945255;28;96642;-93
2024/03/10 06:53:47;;;;;;;34.92;15.82;;;;;;;10.81;48.03;99721.78;4928458;28;96813;-93
2024/03/10 06:56:14;;;;;;;35.00;17.90;;;;;;;10.82;48.08;99723.47;4943802;28;97443;-92
2024/03/10 06:58:46;;;;;;;32.88;15.23;;;;;;;10.83;48.14;99726.09;4926923;28;99754;-94
2024/03/10 07:01:11;;;;;;;35.38;17.05;;;;;;;10.88;48.14;99733.91;4930474;28;99099;-94
2024/03/10 07:03:37;;;;;;;36.53;18.42;;;;;;;10.90;48.10;99739.09;4945108;28;97554;-94
2024/03/10 07:06:06;;;;;;;36.72;17.70;;;;;;;10.93;48.27;99739.09;4929327;28;96971;-93
2024/03/10 07:08:33;;;;;;;33.75;16.90;;;;;;;10.98;48.11;99745.13;4911332;28;99423;-92
2024/03/10 07:11:01;;;;;;;32.60;16.83;;;;;;;11.02;48.08;99733.81;4932758;28;99006;-94
2024/03/10 07:13:30;;;;;;;33.20;15.60;;;;;;;11.05;48.00;99731.16;4950422;28;96707;-91
2024/03/10 07:15:55;;;;;;;32.38;16.67;;;;;;;11.10;48.24;99724.16;4944923;28;96841;-92
2024/03/10 07:18:21;;;;;;;32.17;15.52;;;;;;;11.14;48.30;99731.13;4930146;28;99639;-93
2024/03/10 07:20:46;;;;;;;32.10;16.73;;;;;;;11.17;47.95;99733.69;4931245;28;98396;-91
2024/03/10 07:23:13;;;;;;;32.33;17.35;;;;;;;11.21;47.98;99740.63;4942143;28;96753;-92
2024/03/10 07:25:39;;;;;;;30.25;14.63;;;;;;;11.26;47.97;99743.19;4926836;28;96877;-91
2024/03/10 07:28:05;;;;;;;31.52;15.13;;;;;;;11.30;47.94;99751.84;4925731;28;100425;-92
2024/03/10 07:30:31;;;;;;;36.10;16.38;;;;;;;11.33;47.97;99752.69;4959845;28;97325;-95
2024/03/10 07:32:57;;;;;;;32.42;17.20;;;;;;;11.38;48.20;99744.84;4928162;28;96780;-94
2024/03/10 07:35:23;;;;;;;31.48;15.90;;;;;;;11.47;48.24;99751.72;4947995;28;96698;-91
2024/03/10 07:37:49;;;;;;;30.25;14.68;;;;;;;11.56;48.22;99756.88;4926008;28;99368;-91
2024/03/10 07:40:16;;;;;;;33.67;16.13;;;;;;;11.63;48.09;99766.38;4940546;28;98638;-95
2024/03/10 07:42:43;;;;;;;33.20;15.18;;;;;;;11.69;47.94;99765.44;4926260;28;96908;-93
2024/03/10 07:45:12;;;;;;;34.30;17.30;;;;;;;11.75;47.81;99781.94;4935700;28;96913;-94
2024/03/10 07:47:43;;;;;;;32.30;16.98;;;;;;;11.79;48.02;99767.09;4944535;28;99755;-94
2024/03/10 07:50:16;;;;;;;35.72;15.38;;;;;;;11.84;47.81;99777.53;4927933;28;96724;-93
2024/03/10 07:52:46;;;;;;;31.95;16.83;;;;;;;11.87;47.67;99773.13;4947572;28;96646;-93
2024/03/10 07:55:12;;;;;;;34.13;15.38;;;;;;;11.91;47.58;99779.22;4944577;28;96896;-93
2024/03/10 07:57:40;;;;;;;30.10;15.30;;;;;;;11.96;47.36;99785.25;4943041;28;96866;-93
2024/03/10 08:02:56;;;;;;;30.40;13.95;;;;;;;12.03;47.42;99776.47;4902127;28;96842;-92
2024/03/10 08:05:29;;;;;;;30.45;16.05;;;;;;;12.07;47.39;99766.88;4887657;28;97102;-91
2024/03/10 08:08:32;;;;;;;32.25;14.40;;;;;;;12.11;47.47;99773.78;4870916;28;98895;-92
2024/03/10 08:10:58;;;;;;;33.15;17.10;;;;;;;12.19;47.56;99766.72;4855042;28;99221;-91
2024/03/10 08:13:24;;;;;;;25.05;12.30;;;;;;;12.24;47.65;99761.44;4852673;29;96771;-92
2024/03/10 08:15:50;;;;;;;28.48;15.30;;;;;;;12.34;47.78;99766.53;4881423;28;97047;-90
2024/03/10 08:18:16;;;;;;;28.30;14.38;;;;;;;12.44;47.29;99769.03;4884659;28;99780;-91
2024/03/10 08:21:10;;;;;;;30.02;14.82;;;;;;;12.48;47.16;99763.75;4852231;28;98638;-91
2024/03/10 08:23:40;;;;;;;27.80;13.30;;;;;;;12.56;47.00;99764.50;4851828;28;96721;-91
2024/03/10 08:26:09;;;;;;;29.35;15.18;;;;;;;12.59;46.84;99755.78;4867029;28;96683;-91
2024/03/10 08:40:18;;;;;;;28.02;13.18;;;;;;;12.77;46.42;99758.13;4913002;28;96863;-87
2024/03/10 08:42:46;;;;;;;28.13;13.43;;;;;;;12.81;46.44;99755.47;4919336;28;101381;-88
2024/03/10 08:49:57;;;;;;;24.38;12.80;;;;;;;12.86;46.42;99748.44;4922710;28;96672;-90
2024/03/10 08:52:23;;;;;;;27.58;13.60;;;;;;;12.88;46.32;99752.75;4941720;28;96634;-91
2024/03/10 08:54:49;;;;;;;28.65;16.23;;;;;;;12.90;46.32;99744.88;4941270;28;100433;-91
2024/03/10 08:57:18;;;;;;;28.30;15.05;;;;;;;12.92;46.24;99738.75;4938755;28;99324;-86
2024/03/10 08:59:44;;;;;;;29.60;15.50;;;;;;;12.97;46.42;99745.66;4923501;28;96624;-91
2024/03/10 09:02:09;;;;;;;27.90;13.27;;;;;;;13.04;46.25;99739.44;4944086;28;96546;-91
2024/03/10 09:04:36;;;;;;;27.17;14.80;;;;;;;13.10;46.25;99741.94;4925457;28;101220;-88
2024/03/10 09:07:03;;;;;;;26.85;14.55;;;;;;;13.17;46.06;99729.63;4920109;28;100515;-89
2024/03/10 09:09:29;;;;;;;25.55;12.32;;;;;;;13.25;46.04;99733.00;4918090;28;96840;-88
2024/03/10 09:11:55;;;;;;;29.33;14.10;;;;;;;13.28;45.99;99727.69;4931252;28;96787;-88
2024/03/10 09:14:21;;;;;;;25.73;14.20;;;;;;;13.33;45.94;99718.06;4951700;28;100634;-91
2024/03/10 09:16:48;;;;;;;27.30;14.88;;;;;;;13.37;45.55;99718.88;4958265;28;99246;-91
2024/03/10 09:19:14;;;;;;;23.83;12.52;;;;;;;13.41;45.74;99705.69;4958094;28;96722;-91
2024/03/10 09:21:39;;;;;;;27.48;13.32;;;;;;;13.48;45.75;99709.09;4941142;28;96711;-89
2024/03/10 09:24:05;;;;;;;26.95;14.27;;;;;;;13.56;45.58;99712.41;4923748;28;100172;-89
2024/03/10 09:26:31;;;;;;;25.98;14.00;;;;;;;13.60;45.34;99711.50;4919400;28;100911;-89
2024/03/10 09:28:57;;;;;;;25.65;12.85;;;;;;;13.64;45.63;99717.53;4919280;28;96767;-89
2024/03/10 09:31:24;;;;;;;26.98;14.30;;;;;;;13.70;45.63;99713.03;4918801;28;96855;-88
2024/03/10 09:33:57;;;;;;;25.70;13.15;;;;;;;13.76;45.50;99719.94;4918456;28;99047;-89
2024/03/10 09:36:35;;;;;;;28.90;13.80;;;;;;;13.81;45.40;99712.81;4934392;28;98844;-88
2024/03/10 09:39:00;;;;;;;25.17;12.88;;;;;;;13.89;45.29;99716.19;4934283;28;96821;-89
2024/03/10 09:41:30;;;;;;;24.90;13.00;;;;;;;13.93;45.13;99710.88;4915126;28;96838;-89
2024/03/10 09:43:57;;;;;;;26.45;14.80;;;;;;;13.96;44.99;99703.81;4928508;28;100551;-88
2024/03/10 09:46:23;;;;;;;27.45;14.98;;;;;;;14.01;45.20;99708.97;4948799;28;100164;-89
2024/03/10 09:48:50;;;;;;;25.33;12.38;;;;;;;14.06;45.15;99704.50;4918026;28;96722;-89
2024/03/10 09:51:16;;;;;;;27.25;14.80;;;;;;;14.12;45.26;99699.16;4918723;28;96830;-91
2024/03/10 09:53:46;;;;;;;27.42;13.85;;;;;;;14.17;44.91;99699.91;4922060;28;100840;-88
2024/03/10 09:56:13;;;;;;;26.42;12.95;;;;;;;14.25;45.05;99700.59;4924163;28;99955;-88
2024/03/10 09:58:47;;;;;;;24.35;12.38;;;;;;;14.35;44.92;99697.78;4924014;28;96951;-88
2024/03/10 10:01:18;;;;;;;27.10;14.55;;;;;;;14.42;44.88;99684.53;4925102;28;97019;-88
2024/03/10 10:03:52;;;;;;;24.13;11.77;;;;;;;14.48;44.78;99689.63;4924126;28;100632;-88
2024/03/10 10:06:21;;;;;;;26.40;15.02;;;;;;;14.55;44.62;99685.09;4927811;28;100408;-89
2024/03/10 10:08:58;;;;;;;23.83;12.43;;;;;;;14.63;44.45;99677.09;4939634;28;97351;-89
2024/03/10 10:11:25;;;;;;;24.77;14.00;;;;;;;14.72;44.44;99682.13;4960327;28;96838;-89
2024/03/10 10:14:06;;;;;;;24.98;14.25;;;;;;;14.78;44.28;99674.13;4938925;28;100104;-88
2024/03/10 10:16:32;;;;;;;23.25;12.02;;;;;;;14.88;44.02;99668.66;4939557;28;97597;-88
2024/03/10 10:18:59;;;;;;;25.52;12.80;;;;;;;14.94;43.88;99666.75;4937091;28;96880;-88
2024/03/10 10:21:28;;;;;;;23.75;12.38;;;;;;;15.02;44.44;99669.16;4923976;28;96957;-88
2024/03/10 10:23:56;;;;;;;25.05;11.40;;;;;;;15.12;43.98;99665.44;4923453;28;100379;-88
2024/03/10 10:26:21;;;;;;;25.30;11.93;;;;;;;15.22;43.84;99668.66;4939699;28;99405;-88
2024/03/10 10:29:06;;;;;;;24.30;13.02;;;;;;;15.32;43.75;99656.19;4922939;28;96760;-88
2024/03/10 10:31:32;;;;;;;24.83;12.32;;;;;;;15.41;43.35;99648.03;4923110;28;96913;-88
2024/03/10 10:33:58;;;;;;;24.23;13.52;;;;;;;15.50;43.33;99660.09;4922816;28;100305;-88
2024/03/10 10:36:24;;;;;;;24.45;12.57;;;;;;;15.57;43.02;99640.63;4921967;28;100244;-88
2024/03/10 10:38:50;;;;;;;24.65;14.25;;;;;;;15.64;42.81;99646.56;4938673;28;96785;-87
2024/03/10 10:41:16;;;;;;;25.02;13.40;;;;;;;15.68;42.59;99653.47;4939050;28;96801;-88
2024/03/10 10:43:44;;;;;;;24.67;13.77;;;;;;;15.72;42.60;99660.34;4926371;28;100633;-89
2024/03/10 10:46:10;;;;;;;27.58;13.30;;;;;;;15.77;42.53;99656.75;4923228;28;100334;-88
2024/03/10 10:48:37;;;;;;;27.10;13.80;;;;;;;15.83;42.31;99650.47;4922521;28;96640;-89
2024/03/10 10:51:06;;;;;;;25.35;14.25;;;;;;;15.91;42.38;99652.84;4922531;28;96856;-88
2024/03/10 10:53:43;;;;;;;;;;;;;;;15.94;42.55;99658.03;4938509;28;100870;-88
2024/03/10 10:56:11;;;;;;;24.70;12.80;;;;;;;16.03;42.36;99657.78;4941191;28;100327;-88
2024/03/10 10:58:36;;;;;;;25.80;14.75;;;;;;;16.10;42.38;99656.69;4938055;28;96761;-88
2024/03/10 11:01:07;;;;;;;25.38;14.52;;;;;;;16.15;41.48;99667.09;4934640;28;96949;-88
2024/03/10 11:03:37;;;;;;;25.38;14.27;;;;;;;16.16;41.95;99672.28;4937052;28;100776;-87
2024/03/10 11:06:02;;;;;;;25.92;14.95;;;;;;;16.25;42.71;99671.16;4939095;28;99898;-88
2024/03/10 11:08:29;;;;;;;25.08;12.55;;;;;;;16.44;42.56;99666.19;4917914;28;96900;-87
2024/03/10 11:10:55;;;;;;;23.77;12.70;;;;;;;16.61;42.00;99667.44;4939541;28;97026;-89
2024/03/10 11:13:28;;;;;;;26.40;13.65;;;;;;;16.74;41.76;99681.97;4924894;28;100274;-94
2024/03/10 11:16:03;;;;;;;22.92;13.00;;;;;;;16.86;41.33;99691.25;4940794;28;100181;-88
2024/03/10 11:18:29;;;;;;;24.75;15.13;;;;;;;16.96;41.19;99695.34;4931392;28;96887;-91
2024/03/10 11:20:56;;;;;;;24.42;12.82;;;;;;;17.01;40.93;99687.31;4942372;28;96780;-90
2024/03/10 11:23:43;;;;;;;24.55;13.23;;;;;;;17.01;41.02;99690.78;4921444;28;99474;-92
2024/03/10 11:26:15;;;;;;;26.33;13.98;;;;;;;17.06;40.70;99694.13;4933455;28;100128;-91
2024/03/10 11:28:49;;;;;;;25.23;14.18;;;;;;;17.06;40.49;99690.66;4926994;28;96855;-89
2024/03/10 11:31:38;;;;;;;26.98;14.48;;;;;;;17.06;40.93;99693.28;4929134;28;96932;-87
2024/03/10 11:34:06;;;;;;;24.85;13.38;;;;;;;17.11;40.40;99683.44;4934066;28;100510;-88
2024/03/10 11:36:35;;;;;;;25.75;14.35;;;;;;;17.16;40.71;99692.06;4923837;28;100263;-90
2024/03/10 11:39:01;;;;;;;27.23;14.38;;;;;;;17.20;40.64;99712.13;4930339;28;96813;-89
2024/03/10 11:41:28;;;;;;;24.20;13.38;;;;;;;17.23;40.38;99719.91;4922398;28;96776;-92
2024/03/10 11:43:55;;;;;;;23.30;12.75;;;;;;;17.26;40.31;99726.88;4944779;28;96813;-94
2024/03/10 11:46:24;;;;;;;26.20;15.68;;;;;;;17.28;39.95;99731.19;4935133;28;99422;-93
2024/03/10 11:49:01;;;;;;;28.42;13.02;;;;;;;17.30;39.93;99712.69;4948501;28;96588;-94
2024/03/10 11:51:31;;;;;;;23.42;12.40;;;;;;;17.30;39.74;99708.25;4932825;28;96578;-94
2024/03/10 11:53:58;;;;;;;25.52;14.50;;;;;;;17.31;40.44;99712.63;4933558;28;97725;-96
2024/03/10 11:56:24;;;;;;;24.60;13.23;;;;;;;17.34;40.08;99709.03;4931270;28;98262;-93
2024/03/10 11:58:51;;;;;;;25.90;15.02;;;;;;;17.33;40.22;99720.50;4928698;28;96597;-93
2024/03/10 12:01:18;;;;;;;26.17;13.15;;;;;;;17.37;39.87;99718.63;4932425;28;96774;-94